sensor_id;sensor_type;location;lat;lon;timestamp;temperature;humidity
23439;DHT22;11892;48.838;9.330;2022-07-03T00:02:10;19.20;1.00
23439;DHT22;11892;48.838;9.330;2022-07-03T00:04:36;19.20;1.00
23439;DHT22;11892;48.838;9.330;2022-07-03T00:07:02;19.10;8.10
23439;DHT22;11892;48.838;9.330;2022-07-03T00:09:30;19.10;10.10
23439;DHT22;11892;48.838;9.330;2022-07-03T00:11:57;19.10;18.00
23439;DHT22;11892;48.838;9.330;2022-07-03T00:14:24;19.00;8.70
23439;DHT22;11892;48.838;9.330;2022-07-03T00:16:50;19.00;15.20
23439;DHT22;11892;48.838;9.330;2022-07-03T00:19:15;19.00;17.40
23439;DHT22;11892;48.838;9.330;2022-07-03T00:21:45;19.00;17.70
23439;DHT22;11892;48.838;9.330;2022-07-03T00:24:19;18.90;15.60
23439;DHT22;11892;48.838;9.330;2022-07-03T00:26:50;18.90;11.40
23439;DHT22;11892;48.838;9.330;2022-07-03T00:29:20;18.90;17.70
23439;DHT22;11892;48.838;9.330;2022-07-03T00:31:47;18.90;15.60
23439;DHT22;11892;48.838;9.330;2022-07-03T00:34:17;18.90;16.20
23439;DHT22;11892;48.838;9.330;2022-07-03T00:36:46;18.80;15.90
23439;DHT22;11892;48.838;9.330;2022-07-03T00:39:12;18.70;19.80
23439;DHT22;11892;48.838;9.330;2022-07-03T00:41:39;18.70;27.10
23439;DHT22;11892;48.838;9.330;2022-07-03T00:44:06;18.50;34.40
23439;DHT22;11892;48.838;9.330;2022-07-03T00:46:37;18.50;41.60
23439;DHT22;11892;48.838;9.330;2022-07-03T00:49:05;18.30;48.50
23439;DHT22;11892;48.838;9.330;2022-07-03T00:51:35;18.30;52.30
23439;DHT22;11892;48.838;9.330;2022-07-03T00:54:03;18.40;54.20
23439;DHT22;11892;48.838;9.330;2022-07-03T00:56:30;18.30;57.20
23439;DHT22;11892;48.838;9.330;2022-07-03T00:59:00;18.30;59.80
23439;DHT22;11892;48.838;9.330;2022-07-03T01:01:29;18.30;52.20
23439;DHT22;11892;48.838;9.330;2022-07-03T01:04:06;18.40;48.90
23439;DHT22;11892;48.838;9.330;2022-07-03T01:06:40;18.50;44.70
23439;DHT22;11892;48.838;9.330;2022-07-03T01:09:09;18.40;45.40
23439;DHT22;11892;48.838;9.330;2022-07-03T01:11:39;18.40;45.10
23439;DHT22;11892;48.838;9.330;2022-07-03T01:14:15;18.40;43.70
23439;DHT22;11892;48.838;9.330;2022-07-03T01:16:54;18.40;46.70
23439;DHT22;11892;48.838;9.330;2022-07-03T01:19:35;18.40;45.70
23439;DHT22;11892;48.838;9.330;2022-07-03T01:22:16;18.40;47.50
23439;DHT22;11892;48.838;9.330;2022-07-03T01:25:03;18.40;48.60
23439;DHT22;11892;48.838;9.330;2022-07-03T01:27:35;18.40;48.50
23439;DHT22;11892;48.838;9.330;2022-07-03T01:30:07;18.40;43.40
23439;DHT22;11892;48.838;9.330;2022-07-03T01:32:38;18.40;44.80
23439;DHT22;11892;48.838;9.330;2022-07-03T01:35:07;18.30;47.50
23439;DHT22;11892;48.838;9.330;2022-07-03T01:37:35;18.30;52.30
23439;DHT22;11892;48.838;9.330;2022-07-03T01:40:03;18.20;57.60
23439;DHT22;11892;48.838;9.330;2022-07-03T01:42:34;18.20;59.30
23439;DHT22;11892;48.838;9.330;2022-07-03T01:45:00;18.20;55.50
23439;DHT22;11892;48.838;9.330;2022-07-03T01:47:28;18.20;56.50
23439;DHT22;11892;48.838;9.330;2022-07-03T01:49:58;18.20;59.40
23439;DHT22;11892;48.838;9.330;2022-07-03T01:52:26;18.20;65.50
23439;DHT22;11892;48.838;9.330;2022-07-03T01:54:57;18.20;58.60
23439;DHT22;11892;48.838;9.330;2022-07-03T01:57:30;18.10;67.70
23439;DHT22;11892;48.838;9.330;2022-07-03T02:00:01;18.00;73.80
23439;DHT22;11892;48.838;9.330;2022-07-03T02:02:42;18.00;79.10
23439;DHT22;11892;48.838;9.330;2022-07-03T02:05:17;17.90;90.30
23439;DHT22;11892;48.838;9.330;2022-07-03T02:07:49;17.80;95.90
23439;DHT22;11892;48.838;9.330;2022-07-03T02:10:17;17.80;94.80
23439;DHT22;11892;48.838;9.330;2022-07-03T02:12:48;17.80;98.50
23439;DHT22;11892;48.838;9.330;2022-07-03T02:15:17;17.70;99.90
23439;DHT22;11892;48.838;9.330;2022-07-03T02:17:45;17.70;99.90
23439;DHT22;11892;48.838;9.330;2022-07-03T02:20:13;17.60;99.90
23439;DHT22;11892;48.838;9.330;2022-07-03T02:22:41;17.60;99.90
23439;DHT22;11892;48.838;9.330;2022-07-03T02:25:11;17.60;99.90
23439;DHT22;11892;48.838;9.330;2022-07-03T02:27:42;17.60;99.90
23439;DHT22;11892;48.838;9.330;2022-07-03T02:30:10;17.50;99.90
23439;DHT22;11892;48.838;9.330;2022-07-03T02:32:42;17.60;99.90
23439;DHT22;11892;48.838;9.330;2022-07-03T02:35:11;17.60;99.90
23439;DHT22;11892;48.838;9.330;2022-07-03T02:37:41;17.60;99.20
23439;DHT22;11892;48.838;9.330;2022-07-03T02:40:17;17.60;98.50
23439;DHT22;11892;48.838;9.330;2022-07-03T02:42:54;17.70;99.90
23439;DHT22;11892;48.838;9.330;2022-07-03T02:45:25;17.70;97.50
23439;DHT22;11892;48.838;9.330;2022-07-03T02:48:02;17.70;94.50
23439;DHT22;11892;48.838;9.330;2022-07-03T02:50:32;17.70;95.20
23439;DHT22;11892;48.838;9.330;2022-07-03T02:53:04;17.70;92.20
23439;DHT22;11892;48.838;9.330;2022-07-03T02:55:42;17.70;98.80
23439;DHT22;11892;48.838;9.330;2022-07-03T02:58:44;17.70;98.30
23439;DHT22;11892;48.838;9.330;2022-07-03T03:01:20;17.70;97.30
23439;DHT22;11892;48.838;9.330;2022-07-03T03:04:01;17.60;99.90
23439;DHT22;11892;48.838;9.330;2022-07-03T03:06:32;17.60;99.90
23439;DHT22;11892;48.838;9.330;2022-07-03T03:09:02;17.60;99.90
23439;DHT22;11892;48.838;9.330;2022-07-03T03:11:35;17.60;99.90
23439;DHT22;11892;48.838;9.330;2022-07-03T03:14:09;17.50;99.90
23439;DHT22;11892;48.838;9.330;2022-07-03T03:16:37;17.60;99.90
23439;DHT22;11892;48.838;9.330;2022-07-03T03:19:09;17.60;99.90
23439;DHT22;11892;48.838;9.330;2022-07-03T03:21:42;17.50;99.90
23439;DHT22;11892;48.838;9.330;2022-07-03T03:24:11;17.40;99.90
23439;DHT22;11892;48.838;9.330;2022-07-03T03:26:38;17.40;99.90
23439;DHT22;11892;48.838;9.330;2022-07-03T03:29:04;17.40;99.90
23439;DHT22;11892;48.838;9.330;2022-07-03T03:31:32;17.40;99.90
23439;DHT22;11892;48.838;9.330;2022-07-03T03:33:58;17.40;99.90
23439;DHT22;11892;48.838;9.330;2022-07-03T03:36:29;17.30;99.90
23439;DHT22;11892;48.838;9.330;2022-07-03T03:38:55;17.30;99.90
23439;DHT22;11892;48.838;9.330;2022-07-03T03:41:21;17.30;99.90
23439;DHT22;11892;48.838;9.330;2022-07-03T03:43:47;17.30;99.90
23439;DHT22;11892;48.838;9.330;2022-07-03T03:46:13;17.30;99.90
23439;DHT22;11892;48.838;9.330;2022-07-03T03:48:44;17.40;99.90
23439;DHT22;11892;48.838;9.330;2022-07-03T03:51:10;17.40;99.90
23439;DHT22;11892;48.838;9.330;2022-07-03T03:53:37;17.50;99.90
23439;DHT22;11892;48.838;9.330;2022-07-03T03:56:05;17.50;99.90
23439;DHT22;11892;48.838;9.330;2022-07-03T03:58:33;17.50;99.90
23439;DHT22;11892;48.838;9.330;2022-07-03T04:01:00;17.50;99.90
23439;DHT22;11892;48.838;9.330;2022-07-03T04:03:28;17.50;99.90
23439;DHT22;11892;48.838;9.330;2022-07-03T04:05:54;17.50;99.90
23439;DHT22;11892;48.838;9.330;2022-07-03T04:08:21;17.40;99.90
23439;DHT22;11892;48.838;9.330;2022-07-03T04:10:49;17.40;99.90
23439;DHT22;11892;48.838;9.330;2022-07-03T04:13:16;17.50;99.90
23439;DHT22;11892;48.838;9.330;2022-07-03T04:15:42;17.50;99.90
23439;DHT22;11892;48.838;9.330;2022-07-03T04:18:08;17.50;99.90
23439;DHT22;11892;48.838;9.330;2022-07-03T04:20:35;17.60;99.90
23439;DHT22;11892;48.838;9.330;2022-07-03T04:23:01;17.60;99.90
23439;DHT22;11892;48.838;9.330;2022-07-03T04:25:27;17.60;99.90
23439;DHT22;11892;48.838;9.330;2022-07-03T04:27:54;17.70;99.90
23439;DHT22;11892;48.838;9.330;2022-07-03T04:30:20;17.80;99.90
23439;DHT22;11892;48.838;9.330;2022-07-03T04:32:46;17.70;99.90
23439;DHT22;11892;48.838;9.330;2022-07-03T04:35:13;17.80;99.90
23439;DHT22;11892;48.838;9.330;2022-07-03T04:37:39;17.90;99.90
23439;DHT22;11892;48.838;9.330;2022-07-03T04:40:07;17.90;99.90
23439;DHT22;11892;48.838;9.330;2022-07-03T04:42:33;17.80;99.90
23439;DHT22;11892;48.838;9.330;2022-07-03T04:45:00;17.80;99.90
23439;DHT22;11892;48.838;9.330;2022-07-03T04:47:26;17.90;99.90
23439;DHT22;11892;48.838;9.330;2022-07-03T04:49:52;17.90;99.90
23439;DHT22;11892;48.838;9.330;2022-07-03T04:52:18;17.90;99.90
23439;DHT22;11892;48.838;9.330;2022-07-03T04:54:44;17.90;99.90
23439;DHT22;11892;48.838;9.330;2022-07-03T04:57:10;17.90;99.90
23439;DHT22;11892;48.838;9.330;2022-07-03T04:59:37;17.90;99.90
23439;DHT22;11892;48.838;9.330;2022-07-03T05:02:06;17.90;99.90
23439;DHT22;11892;48.838;9.330;2022-07-03T05:04:33;18.00;99.90
23439;DHT22;11892;48.838;9.330;2022-07-03T05:06:58;18.00;99.90
23439;DHT22;11892;48.838;9.330;2022-07-03T05:09:25;18.10;99.90
23439;DHT22;11892;48.838;9.330;2022-07-03T05:11:51;18.10;99.90
23439;DHT22;11892;48.838;9.330;2022-07-03T05:14:19;18.20;99.90
23439;DHT22;11892;48.838;9.330;2022-07-03T05:16:45;18.30;99.90
23439;DHT22;11892;48.838;9.330;2022-07-03T05:19:12;18.30;99.90
23439;DHT22;11892;48.838;9.330;2022-07-03T05:21:38;18.40;99.90
23439;DHT22;11892;48.838;9.330;2022-07-03T05:24:04;18.50;99.90
23439;DHT22;11892;48.838;9.330;2022-07-03T05:26:30;18.60;99.90
23439;DHT22;11892;48.838;9.330;2022-07-03T05:28:56;18.70;99.90
23439;DHT22;11892;48.838;9.330;2022-07-03T05:31:22;18.70;99.90
23439;DHT22;11892;48.838;9.330;2022-07-03T05:33:48;18.80;99.90
23439;DHT22;11892;48.838;9.330;2022-07-03T05:36:15;18.80;99.90
23439;DHT22;11892;48.838;9.330;2022-07-03T05:38:41;18.90;99.90
23439;DHT22;11892;48.838;9.330;2022-07-03T05:41:25;18.90;99.90
23439;DHT22;11892;48.838;9.330;2022-07-03T05:43:51;19.00;99.90
23439;DHT22;11892;48.838;9.330;2022-07-03T05:46:17;19.00;99.90
23439;DHT22;11892;48.838;9.330;2022-07-03T05:48:43;19.10;99.90
23439;DHT22;11892;48.838;9.330;2022-07-03T05:51:09;19.20;99.90
23439;DHT22;11892;48.838;9.330;2022-07-03T05:53:36;19.20;98.10
23439;DHT22;11892;48.838;9.330;2022-07-03T05:56:02;19.30;97.80
23439;DHT22;11892;48.838;9.330;2022-07-03T05:58:28;19.30;98.70
23439;DHT22;11892;48.838;9.330;2022-07-03T06:00:54;19.40;99.90
23439;DHT22;11892;48.838;9.330;2022-07-03T06:03:20;19.40;98.40
23439;DHT22;11892;48.838;9.330;2022-07-03T06:05:46;19.50;97.10
23439;DHT22;11892;48.838;9.330;2022-07-03T06:08:12;19.60;99.00
23439;DHT22;11892;48.838;9.330;2022-07-03T06:10:39;19.60;95.00
23439;DHT22;11892;48.838;9.330;2022-07-03T06:13:05;19.70;92.10
23439;DHT22;11892;48.838;9.330;2022-07-03T06:15:31;19.80;91.70
23439;DHT22;11892;48.838;9.330;2022-07-03T06:17:58;19.90;82.40
23439;DHT22;11892;48.838;9.330;2022-07-03T06:20:26;19.90;89.10
23439;DHT22;11892;48.838;9.330;2022-07-03T06:22:52;20.00;80.90
23439;DHT22;11892;48.838;9.330;2022-07-03T06:25:18;20.10;81.40
23439;DHT22;11892;48.838;9.330;2022-07-03T06:27:45;20.10;83.00
23439;DHT22;11892;48.838;9.330;2022-07-03T06:30:11;20.20;84.80
23439;DHT22;11892;48.838;9.330;2022-07-03T06:32:37;20.30;72.70
23439;DHT22;11892;48.838;9.330;2022-07-03T06:35:05;20.30;71.40
23439;DHT22;11892;48.838;9.330;2022-07-03T06:37:31;20.40;75.50
23439;DHT22;11892;48.838;9.330;2022-07-03T06:39:56;20.50;78.60
23439;DHT22;11892;48.838;9.330;2022-07-03T06:42:22;20.60;64.30
23439;DHT22;11892;48.838;9.330;2022-07-03T06:44:51;20.70;63.30
23439;DHT22;11892;48.838;9.330;2022-07-03T06:47:17;20.70;73.10
23439;DHT22;11892;48.838;9.330;2022-07-03T06:49:42;20.80;73.80
23439;DHT22;11892;48.838;9.330;2022-07-03T06:52:09;20.80;69.10
23439;DHT22;11892;48.838;9.330;2022-07-03T06:54:35;20.90;65.20
23439;DHT22;11892;48.838;9.330;2022-07-03T06:57:05;21.00;63.70
23439;DHT22;11892;48.838;9.330;2022-07-03T06:59:31;21.10;49.80
23439;DHT22;11892;48.838;9.330;2022-07-03T07:01:58;21.10;50.10
23439;DHT22;11892;48.838;9.330;2022-07-03T07:04:24;21.20;53.10
23439;DHT22;11892;48.838;9.330;2022-07-03T07:06:50;21.30;50.70
23439;DHT22;11892;48.838;9.330;2022-07-03T07:09:16;21.30;50.20
23439;DHT22;11892;48.838;9.330;2022-07-03T07:11:42;21.40;48.50
23439;DHT22;11892;48.838;9.330;2022-07-03T07:14:08;21.50;48.10
23439;DHT22;11892;48.838;9.330;2022-07-03T07:16:34;21.60;40.90
23439;DHT22;11892;48.838;9.330;2022-07-03T07:19:01;21.70;28.20
23439;DHT22;11892;48.838;9.330;2022-07-03T07:21:27;21.80;25.50
23439;DHT22;11892;48.838;9.330;2022-07-03T07:23:53;21.90;21.30
23439;DHT22;11892;48.838;9.330;2022-07-03T07:26:19;22.00;13.10
23439;DHT22;11892;48.838;9.330;2022-07-03T07:28:48;22.10;16.50
23439;DHT22;11892;48.838;9.330;2022-07-03T07:31:14;22.20;15.70
23439;DHT22;11892;48.838;9.330;2022-07-03T07:33:40;22.30;11.60
23439;DHT22;11892;48.838;9.330;2022-07-03T07:36:07;22.40;3.80
23439;DHT22;11892;48.838;9.330;2022-07-03T07:38:33;22.50;7.90
23439;DHT22;11892;48.838;9.330;2022-07-03T07:41:02;22.40;1.00
23439;DHT22;11892;48.838;9.330;2022-07-03T07:43:28;22.50;1.00
23439;DHT22;11892;48.838;9.330;2022-07-03T07:45:54;22.60;1.00
23439;DHT22;11892;48.838;9.330;2022-07-03T07:48:22;22.60;1.00
23439;DHT22;11892;48.838;9.330;2022-07-03T07:50:48;22.70;1.00
23439;DHT22;11892;48.838;9.330;2022-07-03T07:53:16;22.80;1.00
23439;DHT22;11892;48.838;9.330;2022-07-03T07:55:42;22.90;1.00
23439;DHT22;11892;48.838;9.330;2022-07-03T07:58:08;23.00;1.00
23439;DHT22;11892;48.838;9.330;2022-07-03T08:00:35;23.10;1.00
23439;DHT22;11892;48.838;9.330;2022-07-03T08:03:01;23.20;1.00
23439;DHT22;11892;48.838;9.330;2022-07-03T08:06:02;23.30;1.00
23439;DHT22;11892;48.838;9.330;2022-07-03T08:08:29;23.40;1.00
23439;DHT22;11892;48.838;9.330;2022-07-03T08:10:55;23.50;1.00
23439;DHT22;11892;48.838;9.330;2022-07-03T08:13:21;23.60;1.00
23439;DHT22;11892;48.838;9.330;2022-07-03T08:15:47;23.70;1.00
23439;DHT22;11892;48.838;9.330;2022-07-03T08:18:13;23.80;1.00
23439;DHT22;11892;48.838;9.330;2022-07-03T08:20:39;23.80;1.00
23439;DHT22;11892;48.838;9.330;2022-07-03T08:23:06;23.90;1.00
23439;DHT22;11892;48.838;9.330;2022-07-03T08:25:33;24.00;1.00
23439;DHT22;11892;48.838;9.330;2022-07-03T08:27:59;24.10;1.00
23439;DHT22;11892;48.838;9.330;2022-07-03T08:30:26;24.20;1.00
23439;DHT22;11892;48.838;9.330;2022-07-03T08:32:53;24.20;1.00
23439;DHT22;11892;48.838;9.330;2022-07-03T08:35:20;24.40;1.00
23439;DHT22;11892;48.838;9.330;2022-07-03T08:37:46;24.40;1.00
23439;DHT22;11892;48.838;9.330;2022-07-03T08:40:14;24.50;1.00
23439;DHT22;11892;48.838;9.330;2022-07-03T08:42:43;24.70;1.00
23439;DHT22;11892;48.838;9.330;2022-07-03T08:45:13;24.80;1.00
23439;DHT22;11892;48.838;9.330;2022-07-03T08:47:40;24.80;1.00
23439;DHT22;11892;48.838;9.330;2022-07-03T08:50:07;24.90;1.00
23439;DHT22;11892;48.838;9.330;2022-07-03T08:52:34;25.00;1.00
23439;DHT22;11892;48.838;9.330;2022-07-03T08:55:02;25.00;1.00
23439;DHT22;11892;48.838;9.330;2022-07-03T08:57:31;25.10;1.00
23439;DHT22;11892;48.838;9.330;2022-07-03T09:00:02;25.20;1.00
23439;DHT22;11892;48.838;9.330;2022-07-03T09:02:30;25.30;1.00
23439;DHT22;11892;48.838;9.330;2022-07-03T09:04:57;25.30;1.00
23439;DHT22;11892;48.838;9.330;2022-07-03T09:07:24;25.40;1.00
23439;DHT22;11892;48.838;9.330;2022-07-03T09:09:51;25.50;1.00
23439;DHT22;11892;48.838;9.330;2022-07-03T09:12:18;25.60;1.00
23439;DHT22;11892;48.838;9.330;2022-07-03T09:14:44;25.50;1.00
23439;DHT22;11892;48.838;9.330;2022-07-03T09:17:11;25.60;1.00
23439;DHT22;11892;48.838;9.330;2022-07-03T09:19:40;25.70;1.00
23439;DHT22;11892;48.838;9.330;2022-07-03T09:22:19;25.80;1.00
23439;DHT22;11892;48.838;9.330;2022-07-03T09:24:46;25.90;1.00
23439;DHT22;11892;48.838;9.330;2022-07-03T09:27:16;26.00;1.00
23439;DHT22;11892;48.838;9.330;2022-07-03T09:29:50;26.00;1.00
23439;DHT22;11892;48.838;9.330;2022-07-03T09:32:22;26.10;1.00
23439;DHT22;11892;48.838;9.330;2022-07-03T09:34:48;26.20;1.00
23439;DHT22;11892;48.838;9.330;2022-07-03T09:37:24;26.20;1.00
23439;DHT22;11892;48.838;9.330;2022-07-03T09:39:56;26.30;1.00
23439;DHT22;11892;48.838;9.330;2022-07-03T09:42:24;26.40;1.00
23439;DHT22;11892;48.838;9.330;2022-07-03T09:44:54;26.50;1.00
23439;DHT22;11892;48.838;9.330;2022-07-03T09:47:22;26.40;1.00
23439;DHT22;11892;48.838;9.330;2022-07-03T09:49:53;26.50;1.00
23439;DHT22;11892;48.838;9.330;2022-07-03T09:52:27;26.60;1.00
23439;DHT22;11892;48.838;9.330;2022-07-03T09:54:54;26.60;1.00
23439;DHT22;11892;48.838;9.330;2022-07-03T09:57:20;26.50;1.00
23439;DHT22;11892;48.838;9.330;2022-07-03T09:59:46;26.50;1.00
23439;DHT22;11892;48.838;9.330;2022-07-03T10:02:12;26.60;1.00
23439;DHT22;11892;48.838;9.330;2022-07-03T10:04:40;26.70;1.00
23439;DHT22;11892;48.838;9.330;2022-07-03T10:07:06;26.80;1.00
23439;DHT22;11892;48.838;9.330;2022-07-03T10:09:33;26.60;1.00
23439;DHT22;11892;48.838;9.330;2022-07-03T10:12:03;26.60;1.00
23439;DHT22;11892;48.838;9.330;2022-07-03T10:14:32;26.70;1.00
23439;DHT22;11892;48.838;9.330;2022-07-03T10:16:59;26.70;1.00
23439;DHT22;11892;48.838;9.330;2022-07-03T10:19:28;26.90;1.00
23439;DHT22;11892;48.838;9.330;2022-07-03T10:21:57;27.00;1.00
23439;DHT22;11892;48.838;9.330;2022-07-03T10:24:24;27.10;1.00
23439;DHT22;11892;48.838;9.330;2022-07-03T10:26:54;27.20;1.00
23439;DHT22;11892;48.838;9.330;2022-07-03T10:29:21;27.20;1.00
23439;DHT22;11892;48.838;9.330;2022-07-03T10:31:47;27.30;1.00
23439;DHT22;11892;48.838;9.330;2022-07-03T10:34:18;27.40;1.00
23439;DHT22;11892;48.838;9.330;2022-07-03T10:36:47;27.30;1.00
23439;DHT22;11892;48.838;9.330;2022-07-03T10:39:20;27.30;1.00
23439;DHT22;11892;48.838;9.330;2022-07-03T10:41:51;27.50;1.00
23439;DHT22;11892;48.838;9.330;2022-07-03T10:44:50;27.40;1.00
23439;DHT22;11892;48.838;9.330;2022-07-03T10:50:20;27.50;1.00
23439;DHT22;11892;48.838;9.330;2022-07-03T10:52:47;27.80;1.00
23439;DHT22;11892;48.838;9.330;2022-07-03T10:55:16;27.90;1.00
23439;DHT22;11892;48.838;9.330;2022-07-03T10:57:43;27.90;1.00
23439;DHT22;11892;48.838;9.330;2022-07-03T11:00:14;27.80;1.00
23439;DHT22;11892;48.838;9.330;2022-07-03T11:02:42;27.90;1.00
23439;DHT22;11892;48.838;9.330;2022-07-03T11:05:10;27.90;1.00
23439;DHT22;11892;48.838;9.330;2022-07-03T11:07:43;27.80;1.00
23439;DHT22;11892;48.838;9.330;2022-07-03T11:10:31;27.80;1.00
23439;DHT22;11892;48.838;9.330;2022-07-03T11:12:58;27.90;1.00
23439;DHT22;11892;48.838;9.330;2022-07-03T11:15:25;28.10;1.00
23439;DHT22;11892;48.838;9.330;2022-07-03T11:18:14;28.00;1.00
23439;DHT22;11892;48.838;9.330;2022-07-03T11:24:31;27.90;1.00
23439;DHT22;11892;48.838;9.330;2022-07-03T11:27:23;28.00;1.00
23439;DHT22;11892;48.838;9.330;2022-07-03T11:29:57;28.30;1.00
23439;DHT22;11892;48.838;9.330;2022-07-03T11:32:43;28.40;1.00
23439;DHT22;11892;48.838;9.330;2022-07-03T11:35:12;28.50;1.00
23439;DHT22;11892;48.838;9.330;2022-07-03T11:37:58;28.40;1.00
23439;DHT22;11892;48.838;9.330;2022-07-03T11:40:27;28.30;1.00
23439;DHT22;11892;48.838;9.330;2022-07-03T11:42:56;28.40;1.00
23439;DHT22;11892;48.838;9.330;2022-07-03T11:45:22;28.60;1.00
23439;DHT22;11892;48.838;9.330;2022-07-03T11:47:49;28.80;1.00
23439;DHT22;11892;48.838;9.330;2022-07-03T11:50:15;28.90;1.00
23439;DHT22;11892;48.838;9.330;2022-07-03T11:52:41;29.00;1.00
23439;DHT22;11892;48.838;9.330;2022-07-03T11:55:07;29.00;1.00
23439;DHT22;11892;48.838;9.330;2022-07-03T11:57:33;29.00;1.00
23439;DHT22;11892;48.838;9.330;2022-07-03T12:00:05;29.10;1.00
23439;DHT22;11892;48.838;9.330;2022-07-03T12:02:49;29.10;1.00
23439;DHT22;11892;48.838;9.330;2022-07-03T12:05:15;29.20;1.00
23439;DHT22;11892;48.838;9.330;2022-07-03T12:07:41;29.30;1.00
23439;DHT22;11892;48.838;9.330;2022-07-03T12:10:07;29.50;1.00
23439;DHT22;11892;48.838;9.330;2022-07-03T12:12:37;29.60;1.00
23439;DHT22;11892;48.838;9.330;2022-07-03T12:15:05;29.80;1.00
23439;DHT22;11892;48.838;9.330;2022-07-03T12:17:31;29.80;1.00
23439;DHT22;11892;48.838;9.330;2022-07-03T12:19:58;29.90;1.00
23439;DHT22;11892;48.838;9.330;2022-07-03T12:22:26;29.90;1.00
23439;DHT22;11892;48.838;9.330;2022-07-03T12:24:56;30.00;1.00
23439;DHT22;11892;48.838;9.330;2022-07-03T12:27:23;30.30;1.00
23439;DHT22;11892;48.838;9.330;2022-07-03T12:29:52;30.20;1.00
23439;DHT22;11892;48.838;9.330;2022-07-03T12:32:20;30.40;1.00
23439;DHT22;11892;48.838;9.330;2022-07-03T12:34:46;30.60;1.00
23439;DHT22;11892;48.838;9.330;2022-07-03T12:37:12;30.80;1.00
23439;DHT22;11892;48.838;9.330;2022-07-03T12:39:42;30.70;1.00
23439;DHT22;11892;48.838;9.330;2022-07-03T12:42:18;30.90;1.00
23439;DHT22;11892;48.838;9.330;2022-07-03T12:44:55;31.10;1.00
23439;DHT22;11892;48.838;9.330;2022-07-03T12:47:23;31.30;1.00
23439;DHT22;11892;48.838;9.330;2022-07-03T12:49:57;31.40;1.00
23439;DHT22;11892;48.838;9.330;2022-07-03T12:52:24;31.70;1.00
23439;DHT22;11892;48.838;9.330;2022-07-03T12:54:53;32.00;1.00
23439;DHT22;11892;48.838;9.330;2022-07-03T12:57:21;32.30;1.00
23439;DHT22;11892;48.838;9.330;2022-07-03T13:00:08;32.60;1.00
23439;DHT22;11892;48.838;9.330;2022-07-03T13:02:40;32.60;1.00
23439;DHT22;11892;48.838;9.330;2022-07-03T13:05:16;32.90;1.00
23439;DHT22;11892;48.838;9.330;2022-07-03T13:07:43;33.10;1.00
23439;DHT22;11892;48.838;9.330;2022-07-03T13:10:10;32.70;1.00
23439;DHT22;11892;48.838;9.330;2022-07-03T13:12:45;32.80;1.00
23439;DHT22;11892;48.838;9.330;2022-07-03T13:15:13;33.10;1.00
23439;DHT22;11892;48.838;9.330;2022-07-03T13:18:02;33.10;99.90
23439;DHT22;11892;48.838;9.330;2022-07-03T13:20:29;33.10;99.90
23439;DHT22;11892;48.838;9.330;2022-07-03T13:22:57;32.80;99.90
23439;DHT22;11892;48.838;9.330;2022-07-03T13:25:23;32.50;99.90
23439;DHT22;11892;48.838;9.330;2022-07-03T13:27:49;32.80;99.90
23439;DHT22;11892;48.838;9.330;2022-07-03T13:30:18;33.00;99.90
23439;DHT22;11892;48.838;9.330;2022-07-03T13:32:45;33.40;99.90
23439;DHT22;11892;48.838;9.330;2022-07-03T13:35:12;33.60;99.90
23439;DHT22;11892;48.838;9.330;2022-07-03T13:37:38;33.60;99.90
23439;DHT22;11892;48.838;9.330;2022-07-03T13:40:05;33.20;99.90
23439;DHT22;11892;48.838;9.330;2022-07-03T13:42:31;32.40;99.90
23439;DHT22;11892;48.838;9.330;2022-07-03T13:44:58;32.00;99.90
23439;DHT22;11892;48.838;9.330;2022-07-03T13:47:25;31.80;99.90
23439;DHT22;11892;48.838;9.330;2022-07-03T13:49:53;32.10;99.90
23439;DHT22;11892;48.838;9.330;2022-07-03T13:52:20;32.60;99.90
23439;DHT22;11892;48.838;9.330;2022-07-03T13:54:46;32.90;99.90
23439;DHT22;11892;48.838;9.330;2022-07-03T13:57:13;33.50;99.90
23439;DHT22;11892;48.838;9.330;2022-07-03T13:59:40;34.20;99.90
23439;DHT22;11892;48.838;9.330;2022-07-03T14:02:06;34.40;99.90
23439;DHT22;11892;48.838;9.330;2022-07-03T14:04:32;34.70;99.90
23439;DHT22;11892;48.838;9.330;2022-07-03T14:06:58;34.70;99.90
23439;DHT22;11892;48.838;9.330;2022-07-03T14:09:26;35.00;99.90
23439;DHT22;11892;48.838;9.330;2022-07-03T14:11:52;35.50;99.90
23439;DHT22;11892;48.838;9.330;2022-07-03T14:14:17;35.60;99.90
23439;DHT22;11892;48.838;9.330;2022-07-03T14:16:44;35.20;57.90
23439;DHT22;11892;48.838;9.330;2022-07-03T14:19:09;34.80;16.80
23439;DHT22;11892;48.838;9.330;2022-07-03T14:21:35;34.70;14.70
23439;DHT22;11892;48.838;9.330;2022-07-03T14:24:02;34.50;18.90
23439;DHT22;11892;48.838;9.330;2022-07-03T14:26:29;34.90;5.20
23439;DHT22;11892;48.838;9.330;2022-07-03T14:29:13;34.90;1.00
23439;DHT22;11892;48.838;9.330;2022-07-03T14:31:58;34.50;1.00
23439;DHT22;11892;48.838;9.330;2022-07-03T14:34:42;34.10;1.00
23439;DHT22;11892;48.838;9.330;2022-07-03T14:37:08;34.80;1.00
23439;DHT22;11892;48.838;9.330;2022-07-03T14:39:34;34.60;1.00
23439;DHT22;11892;48.838;9.330;2022-07-03T14:42:02;34.70;1.00
23439;DHT22;11892;48.838;9.330;2022-07-03T14:44:28;34.40;1.00
23439;DHT22;11892;48.838;9.330;2022-07-03T14:46:55;35.40;1.00
23439;DHT22;11892;48.838;9.330;2022-07-03T14:49:21;34.90;1.00
23439;DHT22;11892;48.838;9.330;2022-07-03T14:51:47;34.60;1.00
23439;DHT22;11892;48.838;9.330;2022-07-03T14:54:17;34.70;1.00
23439;DHT22;11892;48.838;9.330;2022-07-03T14:56:47;35.00;1.00
23439;DHT22;11892;48.838;9.330;2022-07-03T14:59:28;34.80;1.00
23439;DHT22;11892;48.838;9.330;2022-07-03T15:01:58;35.10;1.00
23439;DHT22;11892;48.838;9.330;2022-07-03T15:04:40;35.40;1.00
23439;DHT22;11892;48.838;9.330;2022-07-03T15:07:13;35.40;1.00
23439;DHT22;11892;48.838;9.330;2022-07-03T15:09:46;34.50;1.00
23439;DHT22;11892;48.838;9.330;2022-07-03T15:12:15;35.00;1.00
23439;DHT22;11892;48.838;9.330;2022-07-03T15:14:57;34.70;1.00
23439;DHT22;11892;48.838;9.330;2022-07-03T15:17:24;35.20;1.00
23439;DHT22;11892;48.838;9.330;2022-07-03T15:19:50;34.90;1.00
23439;DHT22;11892;48.838;9.330;2022-07-03T15:22:18;35.00;1.00
23439;DHT22;11892;48.838;9.330;2022-07-03T15:24:48;35.60;1.00
23439;DHT22;11892;48.838;9.330;2022-07-03T15:27:18;36.00;1.00
23439;DHT22;11892;48.838;9.330;2022-07-03T15:29:44;36.10;1.00
23439;DHT22;11892;48.838;9.330;2022-07-03T15:32:12;35.70;1.00
23439;DHT22;11892;48.838;9.330;2022-07-03T15:34:39;36.10;1.00
23439;DHT22;11892;48.838;9.330;2022-07-03T15:37:08;36.00;1.00
23439;DHT22;11892;48.838;9.330;2022-07-03T15:39:41;36.10;1.00
23439;DHT22;11892;48.838;9.330;2022-07-03T15:42:13;36.20;1.00
23439;DHT22;11892;48.838;9.330;2022-07-03T15:44:50;36.40;1.00
23439;DHT22;11892;48.838;9.330;2022-07-03T15:47:36;35.80;1.00
23439;DHT22;11892;48.838;9.330;2022-07-03T15:50:05;35.80;1.00
23439;DHT22;11892;48.838;9.330;2022-07-03T15:52:32;36.30;1.00
23439;DHT22;11892;48.838;9.330;2022-07-03T15:55:04;36.20;1.00
23439;DHT22;11892;48.838;9.330;2022-07-03T15:57:46;36.70;1.00